sensor_id;sensor_type;location;lat;lon;timestamp;pressure;altitude;pressure_sealevel;temperature;humidity
31011;BME280;26395;53.412;19.598;2022-07-06T00:12:48;100656.72;;;18.64;91.74
31011;BME280;26395;53.412;19.598;2022-07-06T00:27:50;100666.45;;;18.49;92.19
31011;BME280;26395;53.412;19.598;2022-07-06T00:42:53;100643.03;;;18.29;93.26
31011;BME280;26395;53.412;19.598;2022-07-06T00:57:56;100653.72;;;18.21;93.69
31011;BME280;26395;53.412;19.598;2022-07-06T01:12:58;100631.42;;;18.07;94.63
31011;BME280;26395;53.412;19.598;2022-07-06T01:28:01;100645.44;;;17.84;95.65
31011;BME280;26395;53.412;19.598;2022-07-06T01:43:03;100637.20;;;17.79;95.36
31011;BME280;26395;53.412;19.598;2022-07-06T01:58:05;100634.80;;;17.61;96.38
31011;BME280;26395;53.412;19.598;2022-07-06T02:13:08;100634.30;;;17.57;95.54
31011;BME280;26395;53.412;19.598;2022-07-06T02:28:10;100637.00;;;17.49;96.03
31011;BME280;26395;53.412;19.598;2022-07-06T02:43:12;100649.31;;;17.34;96.59
31011;BME280;26395;53.412;19.598;2022-07-06T02:58:15;100647.01;;;17.30;97.32
31011;BME280;26395;53.412;19.598;2022-07-06T03:13:18;100627.14;;;17.26;97.10
31011;BME280;26395;53.412;19.598;2022-07-06T03:28:20;100622.02;;;17.25;98.26
31011;BME280;26395;53.412;19.598;2022-07-06T03:43:23;100606.75;;;17.27;98.59
31011;BME280;26395;53.412;19.598;2022-07-06T03:58:25;100623.92;;;17.39;98.19
31011;BME280;26395;53.412;19.598;2022-07-06T04:13:28;100612.00;;;17.43;98.79
31011;BME280;26395;53.412;19.598;2022-07-06T04:28:30;100621.72;;;17.51;98.87
31011;BME280;26395;53.412;19.598;2022-07-06T04:43:32;100597.14;;;17.97;98.05
31011;BME280;26395;53.412;19.598;2022-07-06T04:58:34;100611.02;;;18.69;96.67
31011;BME280;26395;53.412;19.598;2022-07-06T05:13:37;100601.98;;;19.08;94.70
31011;BME280;26395;53.412;19.598;2022-07-06T05:28:39;100596.97;;;19.65;92.16
31011;BME280;26395;53.412;19.598;2022-07-06T05:43:41;100594.41;;;20.36;88.24
31011;BME280;26395;53.412;19.598;2022-07-06T05:58:43;100599.63;;;20.44;82.04
31011;BME280;26395;53.412;19.598;2022-07-06T06:13:46;100592.44;;;20.45;78.89
31011;BME280;26395;53.412;19.598;2022-07-06T06:28:48;100593.34;;;20.81;77.22
31011;BME280;26395;53.412;19.598;2022-07-06T06:43:51;100591.63;;;21.01;76.62
31011;BME280;26395;53.412;19.598;2022-07-06T06:58:53;100589.50;;;21.25;71.51
31011;BME280;26395;53.412;19.598;2022-07-06T07:14:15;100573.73;;;21.99;69.83
31011;BME280;26395;53.412;19.598;2022-07-06T07:29:18;100580.74;;;22.53;68.68
31011;BME280;26395;53.412;19.598;2022-07-06T07:44:20;100584.02;;;22.69;68.48
31011;BME280;26395;53.412;19.598;2022-07-06T07:59:22;100589.34;;;23.48;65.87
31011;BME280;26395;53.412;19.598;2022-07-06T08:14:25;100588.63;;;24.04;63.57
31011;BME280;26395;53.412;19.598;2022-07-06T08:29:27;100582.95;;;24.70;62.45
31011;BME280;26395;53.412;19.598;2022-07-06T08:44:30;100585.68;;;25.56;61.63
31011;BME280;26395;53.412;19.598;2022-07-06T08:59:33;100582.95;;;25.25;59.70
31011;BME280;26395;53.412;19.598;2022-07-06T09:14:36;100577.06;;;24.80;59.46
31011;BME280;26395;53.412;19.598;2022-07-06T09:29:41;100574.09;;;23.87;62.86
31011;BME280;26395;53.412;19.598;2022-07-06T09:44:43;100551.63;;;25.19;62.34
31011;BME280;26395;53.412;19.598;2022-07-06T09:59:50;100551.78;;;25.73;58.93
31011;BME280;26395;53.412;19.598;2022-07-06T10:14:54;100554.33;;;25.01;56.76
31011;BME280;26395;53.412;19.598;2022-07-06T10:29:57;100562.50;;;26.04;56.75
31011;BME280;26395;53.412;19.598;2022-07-06T10:45:00;100550.45;;;26.66;55.84
31011;BME280;26395;53.412;19.598;2022-07-06T11:00:04;100537.25;;;26.40;53.11
31011;BME280;26395;53.412;19.598;2022-07-06T11:15:08;100550.97;;;25.85;54.95
31011;BME280;26395;53.412;19.598;2022-07-06T11:30:12;100527.66;;;26.21;54.18
31011;BME280;26395;53.412;19.598;2022-07-06T11:45:26;100520.20;;;26.35;54.40
31011;BME280;26395;53.412;19.598;2022-07-06T12:00:30;100522.95;;;27.28;53.43
31011;BME280;26395;53.412;19.598;2022-07-06T12:15:32;100513.33;;;27.32;52.32
31011;BME280;26395;53.412;19.598;2022-07-06T12:30:47;100512.23;;;25.50;53.45
31011;BME280;26395;53.412;19.598;2022-07-06T12:45:50;100510.61;;;25.31;53.63
31011;BME280;26395;53.412;19.598;2022-07-06T13:00:53;100513.39;;;25.24;55.65
31011;BME280;26395;53.412;19.598;2022-07-06T13:15:55;100498.69;;;24.78;55.65
31011;BME280;26395;53.412;19.598;2022-07-06T13:30:58;100525.38;;;24.03;55.17
31011;BME280;26395;53.412;19.598;2022-07-06T13:46:05;100522.68;;;22.87;56.40
31011;BME280;26395;53.412;19.598;2022-07-06T14:01:08;100522.09;;;22.72;57.25
31011;BME280;26395;53.412;19.598;2022-07-06T14:16:11;100526.45;;;22.46;58.96
31011;BME280;26395;53.412;19.598;2022-07-06T14:31:13;100512.69;;;22.16;59.20
31011;BME280;26395;53.412;19.598;2022-07-06T14:46:23;100510.44;;;22.06;59.28
31011;BME280;26395;53.412;19.598;2022-07-06T15:01:26;100497.69;;;21.88;59.16
31011;BME280;26395;53.412;19.598;2022-07-06T15:16:28;100490.90;;;21.65;60.17
31011;BME280;26395;53.412;19.598;2022-07-06T15:31:31;100488.03;;;21.73;60.58
31011;BME280;26395;53.412;19.598;2022-07-06T15:46:34;100494.83;;;22.09;60.71
31011;BME280;26395;53.412;19.598;2022-07-06T16:01:37;100486.00;;;22.36;61.19
31011;BME280;26395;53.412;19.598;2022-07-06T16:16:41;100524.46;;;23.07;59.80
31011;BME280;26395;53.412;19.598;2022-07-06T16:31:44;100534.81;;;22.90;63.01
31011;BME280;26395;53.412;19.598;2022-07-06T16:46:47;100523.25;;;23.80;63.21
31011;BME280;26395;53.412;19.598;2022-07-06T17:01:49;100527.63;;;23.42;62.79
31011;BME280;26395;53.412;19.598;2022-07-06T17:16:53;100519.03;;;22.62;63.68
31011;BME280;26395;53.412;19.598;2022-07-06T17:31:58;100525.81;;;21.70;64.73
31011;BME280;26395;53.412;19.598;2022-07-06T17:47:01;100530.73;;;21.73;65.14
31011;BME280;26395;53.412;19.598;2022-07-06T18:02:05;100530.94;;;21.10;65.72
31011;BME280;26395;53.412;19.598;2022-07-06T18:17:08;100543.48;;;20.46;67.69
31011;BME280;26395;53.412;19.598;2022-07-06T18:32:10;100556.14;;;19.94;68.99
31011;BME280;26395;53.412;19.598;2022-07-06T18:47:13;100565.23;;;19.63;69.51
31011;BME280;26395;53.412;19.598;2022-07-06T19:02:16;100564.17;;;19.42;69.51
31011;BME280;26395;53.412;19.598;2022-07-06T19:17:19;100574.78;;;19.06;70.88
31011;BME280;26395;53.412;19.598;2022-07-06T19:32:23;100585.33;;;18.99;69.89
31011;BME280;26395;53.412;19.598;2022-07-06T19:47:25;100588.20;;;18.74;68.97
31011;BME280;26395;53.412;19.598;2022-07-06T20:02:28;100575.05;;;18.43;68.59
31011;BME280;26395;53.412;19.598;2022-07-06T20:17:31;100575.06;;;18.20;69.28
31011;BME280;26395;53.412;19.598;2022-07-06T20:32:33;100564.47;;;17.96;70.07
31011;BME280;26395;53.412;19.598;2022-07-06T20:47:36;100566.13;;;17.89;71.76
31011;BME280;26395;53.412;19.598;2022-07-06T21:02:38;100565.72;;;17.77;72.82
31011;BME280;26395;53.412;19.598;2022-07-06T21:17:42;100571.13;;;17.61;74.40
31011;BME280;26395;53.412;19.598;2022-07-06T21:32:45;100567.79;;;17.67;74.58
31011;BME280;26395;53.412;19.598;2022-07-06T21:47:47;100574.34;;;17.48;75.60
31011;BME280;26395;53.412;19.598;2022-07-06T22:02:50;100581.36;;;17.33;76.10
31011;BME280;26395;53.412;19.598;2022-07-06T22:17:54;100576.85;;;17.02;78.10
31011;BME280;26395;53.412;19.598;2022-07-06T22:32:56;100580.20;;;16.62;80.59
31011;BME280;26395;53.412;19.598;2022-07-06T22:47:58;100573.78;;;16.32;81.81
31011;BME280;26395;53.412;19.598;2022-07-06T23:03:01;100560.38;;;16.25;82.57
31011;BME280;26395;53.412;19.598;2022-07-06T23:18:03;100576.75;;;15.96;83.68
31011;BME280;26395;53.412;19.598;2022-07-06T23:33:05;100573.93;;;15.89;84.64
31011;BME280;26395;53.412;19.598;2022-07-06T23:48:08;100573.42;;;15.94;84.66
